Springs Airfield

Jump to: basic info | weather | frequencies | runways | comments

Related pages: nearby airports | nearby navaids | notams | map

Basic information (top)

Codes: FASI
Location: lon -26.249400, lat 28.398272, elev 5,340 ft / 1,628 m msl
Status: small_airport

Weather (top)

Current conditions (rec'd 2014/04/17 06:00Z):

FASI 170600Z AUTO /////KT //// // ////// 09/M02 Q1027

Airport forecast for OR Tambo International Airport 11nm (20km) NW (rec'd 2014/04/16 00:00Z):

TAF FAOR 162200Z 1700/1806 06008KT 4000 BR BKN004 
      TEMPO 1702/1706 0800 FG BKN001 
      BECMG 1708/1710 30013KT 9999 SCT030 TX19/1712ZTN09/1704Z

Frequencies (top)

Verify before use: may be inaccurate or out of date.

RDO: 122.4 MHz (RDO)

Runways (top)

03/21: 5,249 x 59 ft (1,600 x 18 m) — paved — lighted — threshold 03 displaced 820 ft (250 m) — threshold 21 displaced 580 ft (177 m)

04/22: size unknown — other (Grass) — not lighted

14/32: 1,818 x 70 ft (554 x 21 m) — grass — not lighted

Latest comments (top)

challenger aircraft: I am trying to locate a gentleman by ... [read]

Operated by the East Rand Flying Club: The East Rand Flying Club operates ... [read]

More... (top)

See also NOTAMs and nearby airports and navaids, or visit the Springs Airfield page at the main OurAirports website..